sensor_id;sensor_type;location;lat;lon;timestamp;pressure;altitude;pressure_sealevel;temperature;humidity
77005;BME280;67261;53.132;18.006;2023-07-08T00:00:11;101742.54;;;17.43;56.94
77005;BME280;67261;53.132;18.006;2023-07-08T00:02:58;101743.63;;;17.39;57.01
77005;BME280;67261;53.132;18.006;2023-07-08T00:05:27;101748.67;;;17.36;57.10
77005;BME280;67261;53.132;18.006;2023-07-08T00:07:56;101748.14;;;17.33;57.26
77005;BME280;67261;53.132;18.006;2023-07-08T00:10:26;101741.82;;;17.25;57.17
77005;BME280;67261;53.132;18.006;2023-07-08T00:12:56;101753.39;;;17.26;57.36
77005;BME280;67261;53.132;18.006;2023-07-08T00:15:27;101751.35;;;17.24;57.17
77005;BME280;67261;53.132;18.006;2023-07-08T00:17:55;101748.02;;;17.20;57.25
77005;BME280;67261;53.132;18.006;2023-07-08T00:20:23;101749.23;;;17.15;57.28
77005;BME280;67261;53.132;18.006;2023-07-08T00:22:57;101747.94;;;17.11;57.32
77005;BME280;67261;53.132;18.006;2023-07-08T00:25:30;101749.58;;;17.07;57.23
77005;BME280;67261;53.132;18.006;2023-07-08T00:27:58;101749.73;;;17.04;57.17
77005;BME280;67261;53.132;18.006;2023-07-08T00:30:30;101746.91;;;17.01;57.32
77005;BME280;67261;53.132;18.006;2023-07-08T00:32:58;101743.02;;;16.97;57.06
77005;BME280;67261;53.132;18.006;2023-07-08T00:41:21;101736.24;;;16.89;57.60
77005;BME280;67261;53.132;18.006;2023-07-08T00:43:56;101736.79;;;16.91;57.96
77005;BME280;67261;53.132;18.006;2023-07-08T00:49:26;101731.69;;;16.88;58.56
77005;BME280;67261;53.132;18.006;2023-07-08T00:54:55;101723.44;;;16.85;58.80
77005;BME280;67261;53.132;18.006;2023-07-08T00:57:28;101717.98;;;16.83;59.11
77005;BME280;67261;53.132;18.006;2023-07-08T01:00:04;101717.78;;;16.82;58.92
77005;BME280;67261;53.132;18.006;2023-07-08T01:02:38;101713.98;;;16.80;59.42
77005;BME280;67261;53.132;18.006;2023-07-08T01:05:12;101709.24;;;16.77;59.54
77005;BME280;67261;53.132;18.006;2023-07-08T01:07:43;101712.30;;;16.72;59.71
77005;BME280;67261;53.132;18.006;2023-07-08T01:10:16;101707.68;;;16.68;59.86
77005;BME280;67261;53.132;18.006;2023-07-08T01:12:49;101704.87;;;16.63;60.31
77005;BME280;67261;53.132;18.006;2023-07-08T01:15:21;101708.97;;;16.58;60.34
77005;BME280;67261;53.132;18.006;2023-07-08T01:17:50;101704.50;;;16.56;60.41
77005;BME280;67261;53.132;18.006;2023-07-08T01:20:20;101702.73;;;16.56;60.54
77005;BME280;67261;53.132;18.006;2023-07-08T01:22:48;101697.17;;;16.55;60.81
77005;BME280;67261;53.132;18.006;2023-07-08T01:25:16;101696.40;;;16.50;60.87
77005;BME280;67261;53.132;18.006;2023-07-08T01:27:47;101692.31;;;16.45;61.03
77005;BME280;67261;53.132;18.006;2023-07-08T01:30:16;101692.75;;;16.43;61.49
77005;BME280;67261;53.132;18.006;2023-07-08T01:32:48;101694.00;;;16.38;61.58
77005;BME280;67261;53.132;18.006;2023-07-08T01:35:17;101693.36;;;16.33;61.76
77005;BME280;67261;53.132;18.006;2023-07-08T01:37:51;101691.69;;;16.29;61.89
77005;BME280;67261;53.132;18.006;2023-07-08T01:40:30;101694.86;;;16.24;62.16
77005;BME280;67261;53.132;18.006;2023-07-08T01:42:58;101693.26;;;16.19;62.06
77005;BME280;67261;53.132;18.006;2023-07-08T01:45:33;101695.27;;;16.15;62.16
77005;BME280;67261;53.132;18.006;2023-07-08T01:48:07;101695.72;;;16.12;62.31
77005;BME280;67261;53.132;18.006;2023-07-08T01:50:41;101693.65;;;16.10;62.37
77005;BME280;67261;53.132;18.006;2023-07-08T01:53:15;101692.41;;;16.09;62.79
77005;BME280;67261;53.132;18.006;2023-07-08T01:55:47;101695.18;;;16.06;62.75
77005;BME280;67261;53.132;18.006;2023-07-08T01:58:14;101697.02;;;16.04;62.84
77005;BME280;67261;53.132;18.006;2023-07-08T02:00:42;101696.64;;;16.01;63.09
77005;BME280;67261;53.132;18.006;2023-07-08T02:03:10;101693.13;;;15.96;63.16
77005;BME280;67261;53.132;18.006;2023-07-08T02:05:38;101694.40;;;15.95;63.26
77005;BME280;67261;53.132;18.006;2023-07-08T02:08:05;101698.84;;;15.92;63.50
77005;BME280;67261;53.132;18.006;2023-07-08T02:10:33;101699.95;;;15.91;63.52
77005;BME280;67261;53.132;18.006;2023-07-08T02:13:01;101704.11;;;15.88;63.38
77005;BME280;67261;53.132;18.006;2023-07-08T02:15:28;101706.52;;;15.87;63.65
77005;BME280;67261;53.132;18.006;2023-07-08T02:17:55;101709.38;;;15.86;63.69
77005;BME280;67261;53.132;18.006;2023-07-08T02:20:23;101710.17;;;15.85;63.33
77005;BME280;67261;53.132;18.006;2023-07-08T02:22:50;101712.66;;;15.85;63.45
77005;BME280;67261;53.132;18.006;2023-07-08T02:25:18;101711.08;;;15.85;63.60
77005;BME280;67261;53.132;18.006;2023-07-08T02:27:46;101712.41;;;15.86;63.98
77005;BME280;67261;53.132;18.006;2023-07-08T02:30:13;101716.96;;;15.85;64.07
77005;BME280;67261;53.132;18.006;2023-07-08T02:32:41;101718.35;;;15.80;64.20
77005;BME280;67261;53.132;18.006;2023-07-08T02:35:09;101716.90;;;15.77;64.33
77005;BME280;67261;53.132;18.006;2023-07-08T02:37:36;101715.49;;;15.77;64.16
77005;BME280;67261;53.132;18.006;2023-07-08T02:40:05;101712.00;;;15.78;64.43
77005;BME280;67261;53.132;18.006;2023-07-08T02:42:33;101712.42;;;15.81;64.26
77005;BME280;67261;53.132;18.006;2023-07-08T02:45:00;101713.33;;;15.82;64.29
77005;BME280;67261;53.132;18.006;2023-07-08T02:47:27;101709.63;;;15.83;64.58
77005;BME280;67261;53.132;18.006;2023-07-08T02:49:55;101707.35;;;15.85;64.69
77005;BME280;67261;53.132;18.006;2023-07-08T02:52:23;101705.71;;;15.85;64.67
77005;BME280;67261;53.132;18.006;2023-07-08T02:54:51;101708.36;;;15.87;64.84
77005;BME280;67261;53.132;18.006;2023-07-08T02:57:18;101707.56;;;15.89;64.85
77005;BME280;67261;53.132;18.006;2023-07-08T02:59:45;101708.10;;;15.92;64.81
77005;BME280;67261;53.132;18.006;2023-07-08T03:02:14;101709.42;;;15.97;65.09
77005;BME280;67261;53.132;18.006;2023-07-08T03:04:42;101703.94;;;16.01;64.88
77005;BME280;67261;53.132;18.006;2023-07-08T03:07:11;101705.10;;;16.13;64.94
77005;BME280;67261;53.132;18.006;2023-07-08T03:09:39;101701.96;;;16.65;64.09
77005;BME280;67261;53.132;18.006;2023-07-08T03:12:08;101698.50;;;17.49;62.94
77005;BME280;67261;53.132;18.006;2023-07-08T03:14:37;101703.02;;;18.32;61.37
77005;BME280;67261;53.132;18.006;2023-07-08T03:17:05;101703.34;;;19.08;60.01
77005;BME280;67261;53.132;18.006;2023-07-08T03:19:34;101699.46;;;19.76;58.75
77005;BME280;67261;53.132;18.006;2023-07-08T03:22:02;101695.37;;;20.31;57.53
77005;BME280;67261;53.132;18.006;2023-07-08T03:24:32;101698.60;;;20.73;56.53
77005;BME280;67261;53.132;18.006;2023-07-08T03:27:03;101693.27;;;21.09;55.64
77005;BME280;67261;53.132;18.006;2023-07-08T03:29:34;101691.70;;;21.46;54.89
77005;BME280;67261;53.132;18.006;2023-07-08T03:32:02;101690.25;;;21.82;54.12
77005;BME280;67261;53.132;18.006;2023-07-08T03:34:31;101690.75;;;22.09;53.34
77005;BME280;67261;53.132;18.006;2023-07-08T03:36:58;101690.23;;;22.39;52.64
77005;BME280;67261;53.132;18.006;2023-07-08T03:39:29;101693.38;;;22.98;51.76
77005;BME280;67261;53.132;18.006;2023-07-08T03:42:00;101688.13;;;23.60;50.81
77005;BME280;67261;53.132;18.006;2023-07-08T03:44:27;101684.36;;;24.00;49.75
77005;BME280;67261;53.132;18.006;2023-07-08T03:46:55;101685.98;;;24.45;48.80
77005;BME280;67261;53.132;18.006;2023-07-08T03:49:23;101684.47;;;24.93;48.04
77005;BME280;67261;53.132;18.006;2023-07-08T03:51:52;101684.85;;;25.41;47.06
77005;BME280;67261;53.132;18.006;2023-07-08T03:54:24;101687.67;;;26.03;45.75
77005;BME280;67261;53.132;18.006;2023-07-08T03:56:54;101681.87;;;26.56;44.71
77005;BME280;67261;53.132;18.006;2023-07-08T03:59:25;101686.95;;;27.18;43.76
77005;BME280;67261;53.132;18.006;2023-07-08T04:01:54;101681.80;;;27.75;42.50
77005;BME280;67261;53.132;18.006;2023-07-08T04:04:22;101677.68;;;28.19;41.51
77005;BME280;67261;53.132;18.006;2023-07-08T04:06:49;101679.85;;;28.60;40.62
77005;BME280;67261;53.132;18.006;2023-07-08T04:09:18;101680.59;;;29.02;39.52
77005;BME280;67261;53.132;18.006;2023-07-08T04:11:46;101678.12;;;29.29;38.87
77005;BME280;67261;53.132;18.006;2023-07-08T04:14:14;101674.67;;;29.60;38.15
77005;BME280;67261;53.132;18.006;2023-07-08T04:16:49;101676.38;;;29.94;37.28
77005;BME280;67261;53.132;18.006;2023-07-08T04:19:18;101672.58;;;30.09;36.63
77005;BME280;67261;53.132;18.006;2023-07-08T04:21:47;101677.23;;;30.20;36.19
77005;BME280;67261;53.132;18.006;2023-07-08T04:24:17;101673.64;;;30.41;35.61
77005;BME280;67261;53.132;18.006;2023-07-08T04:26:47;101673.61;;;30.75;34.97
77005;BME280;67261;53.132;18.006;2023-07-08T04:29:19;101677.83;;;30.98;34.52
77005;BME280;67261;53.132;18.006;2023-07-08T04:31:48;101681.27;;;31.26;33.89
77005;BME280;67261;53.132;18.006;2023-07-08T04:34:16;101675.04;;;31.74;33.23
77005;BME280;67261;53.132;18.006;2023-07-08T04:36:45;101668.30;;;32.49;32.17
77005;BME280;67261;53.132;18.006;2023-07-08T04:39:16;101665.59;;;33.28;31.11
77005;BME280;67261;53.132;18.006;2023-07-08T04:41:46;101664.89;;;34.10;30.44
77005;BME280;67261;53.132;18.006;2023-07-08T04:44:21;101666.65;;;34.62;29.52
77005;BME280;67261;53.132;18.006;2023-07-08T04:46:51;101664.95;;;35.12;28.65
77005;BME280;67261;53.132;18.006;2023-07-08T04:49:22;101667.46;;;35.58;27.74
77005;BME280;67261;53.132;18.006;2023-07-08T04:51:51;101663.30;;;36.14;27.20
77005;BME280;67261;53.132;18.006;2023-07-08T04:54:21;101658.04;;;36.78;26.32
77005;BME280;67261;53.132;18.006;2023-07-08T04:56:49;101655.76;;;37.25;25.65
77005;BME280;67261;53.132;18.006;2023-07-08T04:59:20;101656.57;;;37.75;24.65
77005;BME280;67261;53.132;18.006;2023-07-08T05:01:49;101657.79;;;38.47;24.31
77005;BME280;67261;53.132;18.006;2023-07-08T05:04:19;101658.39;;;39.41;23.03
77005;BME280;67261;53.132;18.006;2023-07-08T05:06:47;101656.91;;;40.15;22.12
77005;BME280;67261;53.132;18.006;2023-07-08T05:09:19;101655.40;;;40.77;21.56
77005;BME280;67261;53.132;18.006;2023-07-08T05:11:49;101656.36;;;41.41;20.82
77005;BME280;67261;53.132;18.006;2023-07-08T05:14:17;101657.55;;;41.89;20.41
77005;BME280;67261;53.132;18.006;2023-07-08T05:16:48;101654.09;;;42.38;19.66
77005;BME280;67261;53.132;18.006;2023-07-08T05:19:17;101654.73;;;42.77;19.09
77005;BME280;67261;53.132;18.006;2023-07-08T05:21:45;101660.89;;;42.99;18.72
77005;BME280;67261;53.132;18.006;2023-07-08T05:24:14;101660.66;;;43.02;18.50
77005;BME280;67261;53.132;18.006;2023-07-08T05:26:45;101647.91;;;43.04;18.24
77005;BME280;67261;53.132;18.006;2023-07-08T05:29:12;101645.59;;;43.30;18.03
77005;BME280;67261;53.132;18.006;2023-07-08T05:31:41;101645.61;;;43.70;17.66
77005;BME280;67261;53.132;18.006;2023-07-08T05:34:08;101646.57;;;43.88;17.05
77005;BME280;67261;53.132;18.006;2023-07-08T05:36:35;101644.58;;;44.15;16.85
77005;BME280;67261;53.132;18.006;2023-07-08T05:39:05;101642.26;;;44.38;16.53
77005;BME280;67261;53.132;18.006;2023-07-08T05:41:33;101640.08;;;44.42;16.33
77005;BME280;67261;53.132;18.006;2023-07-08T05:44:00;101640.67;;;44.29;16.48
77005;BME280;67261;53.132;18.006;2023-07-08T05:46:28;101641.59;;;44.40;16.44
77005;BME280;67261;53.132;18.006;2023-07-08T05:48:56;101637.53;;;44.55;16.28
77005;BME280;67261;53.132;18.006;2023-07-08T05:51:25;101633.35;;;44.74;16.04
77005;BME280;67261;53.132;18.006;2023-07-08T05:53:58;101631.81;;;44.96;15.79
77005;BME280;67261;53.132;18.006;2023-07-08T05:56:26;101629.95;;;45.09;15.59
77005;BME280;67261;53.132;18.006;2023-07-08T05:58:54;101624.50;;;45.26;15.58
77005;BME280;67261;53.132;18.006;2023-07-08T06:01:22;101625.44;;;45.54;15.40
77005;BME280;67261;53.132;18.006;2023-07-08T06:03:52;101623.95;;;45.91;15.29
77005;BME280;67261;53.132;18.006;2023-07-08T06:06:19;101619.67;;;46.22;15.12
77005;BME280;67261;53.132;18.006;2023-07-08T06:08:47;101617.68;;;46.46;14.67
77005;BME280;67261;53.132;18.006;2023-07-08T06:11:15;101616.20;;;46.68;14.50
77005;BME280;67261;53.132;18.006;2023-07-08T06:13:44;101616.39;;;46.99;14.14
77005;BME280;67261;53.132;18.006;2023-07-08T06:16:11;101612.55;;;47.12;14.11
77005;BME280;67261;53.132;18.006;2023-07-08T06:18:39;101611.31;;;47.38;13.76
77005;BME280;67261;53.132;18.006;2023-07-08T06:21:06;101617.48;;;47.49;13.53
77005;BME280;67261;53.132;18.006;2023-07-08T06:23:34;101618.63;;;47.57;13.46
77005;BME280;67261;53.132;18.006;2023-07-08T06:26:03;101623.16;;;47.70;13.50
77005;BME280;67261;53.132;18.006;2023-07-08T06:28:33;101623.95;;;47.86;13.41
77005;BME280;67261;53.132;18.006;2023-07-08T06:31:00;101621.04;;;48.04;13.25
77005;BME280;67261;53.132;18.006;2023-07-08T06:33:32;101621.23;;;48.07;13.18
77005;BME280;67261;53.132;18.006;2023-07-08T06:36:01;101623.09;;;48.09;12.90
77005;BME280;67261;53.132;18.006;2023-07-08T06:38:29;101623.48;;;48.17;13.00
77005;BME280;67261;53.132;18.006;2023-07-08T06:41:01;101620.36;;;48.09;13.02
77005;BME280;67261;53.132;18.006;2023-07-08T06:43:30;101617.22;;;48.00;13.04
77005;BME280;67261;53.132;18.006;2023-07-08T06:46:17;101615.17;;;48.05;13.22
77005;BME280;67261;53.132;18.006;2023-07-08T06:48:47;101619.41;;;48.19;12.97
77005;BME280;67261;53.132;18.006;2023-07-08T06:51:15;101615.50;;;48.14;12.32
77005;BME280;67261;53.132;18.006;2023-07-08T06:53:44;101612.48;;;48.19;12.14
77005;BME280;67261;53.132;18.006;2023-07-08T06:56:11;101608.54;;;48.02;12.06
77005;BME280;67261;53.132;18.006;2023-07-08T06:58:39;101604.04;;;47.95;12.09
77005;BME280;67261;53.132;18.006;2023-07-08T07:01:07;101607.50;;;47.89;12.11
77005;BME280;67261;53.132;18.006;2023-07-08T07:03:35;101608.66;;;47.78;12.03
77005;BME280;67261;53.132;18.006;2023-07-08T07:06:06;101608.41;;;47.63;11.85
77005;BME280;67261;53.132;18.006;2023-07-08T07:08:36;101607.03;;;47.19;11.63
77005;BME280;67261;53.132;18.006;2023-07-08T07:11:04;101608.41;;;46.82;11.84
77005;BME280;67261;53.132;18.006;2023-07-08T07:13:31;101605.33;;;46.65;12.20
77005;BME280;67261;53.132;18.006;2023-07-08T07:16:02;101602.91;;;46.65;12.49
77005;BME280;67261;53.132;18.006;2023-07-08T07:18:30;101607.02;;;46.80;12.38
77005;BME280;67261;53.132;18.006;2023-07-08T07:20:58;101606.61;;;46.96;12.33
77005;BME280;67261;53.132;18.006;2023-07-08T07:23:26;101607.42;;;47.14;12.24
77005;BME280;67261;53.132;18.006;2023-07-08T07:25:55;101604.14;;;47.25;12.15
77005;BME280;67261;53.132;18.006;2023-07-08T07:28:23;101603.79;;;47.28;12.10
77005;BME280;67261;53.132;18.006;2023-07-08T07:30:59;101600.31;;;47.26;11.99
77005;BME280;67261;53.132;18.006;2023-07-08T07:33:30;101609.79;;;47.70;12.11
77005;BME280;67261;53.132;18.006;2023-07-08T07:36:01;101605.64;;;47.60;11.98
77005;BME280;67261;53.132;18.006;2023-07-08T07:38:32;101608.95;;;47.19;12.03
77005;BME280;67261;53.132;18.006;2023-07-08T07:41:04;101606.24;;;46.77;12.39
77005;BME280;67261;53.132;18.006;2023-07-08T07:43:35;101607.27;;;46.52;12.52
77005;BME280;67261;53.132;18.006;2023-07-08T07:46:04;101607.56;;;46.14;12.63
77005;BME280;67261;53.132;18.006;2023-07-08T07:48:33;101612.09;;;45.34;13.28
77005;BME280;67261;53.132;18.006;2023-07-08T07:51:07;101614.72;;;44.53;13.81
77005;BME280;67261;53.132;18.006;2023-07-08T07:53:38;101612.98;;;43.72;14.18
77005;BME280;67261;53.132;18.006;2023-07-08T07:56:05;101611.29;;;42.79;15.01
77005;BME280;67261;53.132;18.006;2023-07-08T07:58:34;101613.19;;;42.09;15.65
77005;BME280;67261;53.132;18.006;2023-07-08T08:01:01;101613.44;;;41.48;15.87
77005;BME280;67261;53.132;18.006;2023-07-08T08:03:29;101609.80;;;40.92;15.87
77005;BME280;67261;53.132;18.006;2023-07-08T08:05:59;101612.20;;;40.22;16.53
77005;BME280;67261;53.132;18.006;2023-07-08T08:08:27;101615.16;;;39.74;16.97
77005;BME280;67261;53.132;18.006;2023-07-08T08:10:56;101613.92;;;39.34;16.92
77005;BME280;67261;53.132;18.006;2023-07-08T08:13:25;101614.45;;;38.99;16.88
77005;BME280;67261;53.132;18.006;2023-07-08T08:15:58;101614.17;;;38.73;17.31
77005;BME280;67261;53.132;18.006;2023-07-08T08:18:27;101616.52;;;38.50;17.56
77005;BME280;67261;53.132;18.006;2023-07-08T08:20:59;101618.89;;;38.15;17.71
77005;BME280;67261;53.132;18.006;2023-07-08T08:23:27;101624.23;;;37.60;17.87
77005;BME280;67261;53.132;18.006;2023-07-08T08:25:57;101621.26;;;37.20;18.10
77005;BME280;67261;53.132;18.006;2023-07-08T08:28:26;101620.03;;;36.93;18.60
77005;BME280;67261;53.132;18.006;2023-07-08T08:30:53;101622.23;;;36.69;19.18
77005;BME280;67261;53.132;18.006;2023-07-08T08:33:22;101617.91;;;36.45;19.42
77005;BME280;67261;53.132;18.006;2023-07-08T08:35:49;101618.45;;;36.30;19.64
77005;BME280;67261;53.132;18.006;2023-07-08T08:38:18;101627.10;;;36.04;19.85
77005;BME280;67261;53.132;18.006;2023-07-08T08:40:48;101625.73;;;35.85;19.95
77005;BME280;67261;53.132;18.006;2023-07-08T08:43:21;101625.31;;;35.66;19.54
77005;BME280;67261;53.132;18.006;2023-07-08T08:45:55;101629.71;;;35.40;19.46
77005;BME280;67261;53.132;18.006;2023-07-08T08:48:26;101630.55;;;35.23;19.65
77005;BME280;67261;53.132;18.006;2023-07-08T08:51:12;101632.78;;;35.12;19.92
77005;BME280;67261;53.132;18.006;2023-07-08T08:53:43;101629.25;;;34.98;20.02
77005;BME280;67261;53.132;18.006;2023-07-08T08:57:02;101623.04;;;34.70;19.94
77005;BME280;67261;53.132;18.006;2023-07-08T08:59:55;101620.54;;;34.40;20.32
77005;BME280;67261;53.132;18.006;2023-07-08T09:04:56;101616.89;;;34.09;20.65
77005;BME280;67261;53.132;18.006;2023-07-08T09:07:28;101620.20;;;33.94;20.63
77005;BME280;67261;53.132;18.006;2023-07-08T09:12:51;101619.07;;;33.49;20.88
77005;BME280;67261;53.132;18.006;2023-07-08T09:15:22;101618.19;;;33.41;20.94
77005;BME280;67261;53.132;18.006;2023-07-08T09:17:57;101617.17;;;33.34;20.93
77005;BME280;67261;53.132;18.006;2023-07-08T09:20:32;101616.60;;;33.28;21.16
77005;BME280;67261;53.132;18.006;2023-07-08T09:26:09;101616.62;;;33.07;21.72
77005;BME280;67261;53.132;18.006;2023-07-08T09:28:43;101614.38;;;33.02;22.05
77005;BME280;67261;53.132;18.006;2023-07-08T09:31:28;101613.29;;;32.99;22.61
77005;BME280;67261;53.132;18.006;2023-07-08T09:34:40;101610.75;;;33.03;22.74
77005;BME280;67261;53.132;18.006;2023-07-08T09:37:27;101605.30;;;33.03;22.92
77005;BME280;67261;53.132;18.006;2023-07-08T09:40:03;101606.52;;;33.04;22.70
77005;BME280;67261;53.132;18.006;2023-07-08T09:42:34;101604.31;;;33.00;22.24
77005;BME280;67261;53.132;18.006;2023-07-08T09:45:12;101601.77;;;32.95;22.29
77005;BME280;67261;53.132;18.006;2023-07-08T09:47:43;101598.56;;;32.83;22.42
77005;BME280;67261;53.132;18.006;2023-07-08T09:50:24;101608.09;;;32.80;22.43
77005;BME280;67261;53.132;18.006;2023-07-08T09:52:56;101602.72;;;32.72;22.19
77005;BME280;67261;53.132;18.006;2023-07-08T09:55:30;101602.17;;;32.67;22.06
77005;BME280;67261;53.132;18.006;2023-07-08T09:58:01;101602.58;;;32.64;22.17
77005;BME280;67261;53.132;18.006;2023-07-08T10:00:33;101594.98;;;32.56;22.15
77005;BME280;67261;53.132;18.006;2023-07-08T10:03:12;101591.81;;;32.49;22.35
77005;BME280;67261;53.132;18.006;2023-07-08T10:05:46;101589.52;;;32.45;22.50
77005;BME280;67261;53.132;18.006;2023-07-08T10:08:19;101582.22;;;32.38;22.82
77005;BME280;67261;53.132;18.006;2023-07-08T10:11:00;101582.27;;;32.33;23.04
77005;BME280;67261;53.132;18.006;2023-07-08T10:13:50;101580.30;;;32.28;23.20
77005;BME280;67261;53.132;18.006;2023-07-08T10:16:22;101591.25;;;32.29;23.35
77005;BME280;67261;53.132;18.006;2023-07-08T10:18:53;101586.14;;;32.23;23.21
77005;BME280;67261;53.132;18.006;2023-07-08T10:30:25;101577.13;;;32.02;23.32
77005;BME280;67261;53.132;18.006;2023-07-08T10:33:31;101578.11;;;32.03;23.06
77005;BME280;67261;53.132;18.006;2023-07-08T10:42:18;101571.80;;;32.01;23.71
77005;BME280;67261;53.132;18.006;2023-07-08T10:45:12;101562.30;;;32.03;23.82
77005;BME280;67261;53.132;18.006;2023-07-08T10:55:59;101561.36;;;31.79;22.86
77005;BME280;67261;53.132;18.006;2023-07-08T11:04:20;101552.02;;;31.66;23.73
77005;BME280;67261;53.132;18.006;2023-07-08T11:07:22;101549.71;;;31.64;23.63
77005;BME280;67261;53.132;18.006;2023-07-08T11:12:46;101556.41;;;31.43;22.69
77005;BME280;67261;53.132;18.006;2023-07-08T11:15:22;101552.41;;;31.42;22.87
77005;BME280;67261;53.132;18.006;2023-07-08T11:20:45;101547.97;;;31.48;22.46
77005;BME280;67261;53.132;18.006;2023-07-08T11:23:43;101556.63;;;31.42;22.32
77005;BME280;67261;53.132;18.006;2023-07-08T11:28:43;101542.79;;;31.32;21.33
77005;BME280;67261;53.132;18.006;2023-07-08T11:31:13;101539.80;;;31.26;21.19
77005;BME280;67261;53.132;18.006;2023-07-08T11:33:42;101540.11;;;31.11;21.71
77005;BME280;67261;53.132;18.006;2023-07-08T11:36:13;101538.82;;;31.03;22.55
77005;BME280;67261;53.132;18.006;2023-07-08T11:39:00;101526.24;;;30.94;23.04
77005;BME280;67261;53.132;18.006;2023-07-08T11:41:31;101525.91;;;30.92;23.09
77005;BME280;67261;53.132;18.006;2023-07-08T11:44:03;101526.63;;;30.88;23.16
77005;BME280;67261;53.132;18.006;2023-07-08T11:46:33;101526.59;;;30.82;23.24
77005;BME280;67261;53.132;18.006;2023-07-08T11:49:14;101524.22;;;30.78;23.72
77005;BME280;67261;53.132;18.006;2023-07-08T11:51:45;101523.06;;;30.79;23.81
77005;BME280;67261;53.132;18.006;2023-07-08T11:54:27;101523.52;;;30.80;23.77
77005;BME280;67261;53.132;18.006;2023-07-08T11:57:07;101523.28;;;30.77;23.96
77005;BME280;67261;53.132;18.006;2023-07-08T11:59:39;101531.48;;;30.71;23.32
77005;BME280;67261;53.132;18.006;2023-07-08T12:02:19;101519.77;;;30.58;22.96
77005;BME280;67261;53.132;18.006;2023-07-08T12:05:12;101528.93;;;30.51;23.38
77005;BME280;67261;53.132;18.006;2023-07-08T12:07:47;101524.94;;;30.37;23.42
77005;BME280;67261;53.132;18.006;2023-07-08T12:10:39;101518.48;;;30.21;23.26
77005;BME280;67261;53.132;18.006;2023-07-08T12:13:14;101521.11;;;30.13;23.51
77005;BME280;67261;53.132;18.006;2023-07-08T12:15:44;101513.98;;;30.12;24.07
77005;BME280;67261;53.132;18.006;2023-07-08T12:20:50;101514.07;;;30.18;24.10
77005;BME280;67261;53.132;18.006;2023-07-08T12:23:24;101512.54;;;30.17;23.70
77005;BME280;67261;53.132;18.006;2023-07-08T12:25:54;101516.54;;;30.17;23.37
77005;BME280;67261;53.132;18.006;2023-07-08T12:28:22;101520.41;;;30.15;23.45
77005;BME280;67261;53.132;18.006;2023-07-08T12:30:53;101513.19;;;30.09;23.46
77005;BME280;67261;53.132;18.006;2023-07-08T12:33:30;101518.97;;;30.05;23.76
77005;BME280;67261;53.132;18.006;2023-07-08T12:36:01;101512.63;;;29.97;23.90
77005;BME280;67261;53.132;18.006;2023-07-08T12:38:37;101511.17;;;29.94;24.07
77005;BME280;67261;53.132;18.006;2023-07-08T12:41:10;101509.39;;;29.96;24.06
77005;BME280;67261;53.132;18.006;2023-07-08T12:43:39;101507.56;;;29.94;23.55
77005;BME280;67261;53.132;18.006;2023-07-08T12:46:09;101504.30;;;29.84;23.23
77005;BME280;67261;53.132;18.006;2023-07-08T12:48:39;101502.33;;;29.77;23.47
77005;BME280;67261;53.132;18.006;2023-07-08T12:51:14;101500.30;;;29.77;23.55
77005;BME280;67261;53.132;18.006;2023-07-08T12:53:45;101500.40;;;29.77;23.59
77005;BME280;67261;53.132;18.006;2023-07-08T12:56:17;101498.45;;;29.80;23.69
77005;BME280;67261;53.132;18.006;2023-07-08T12:58:49;101499.80;;;29.84;23.77
77005;BME280;67261;53.132;18.006;2023-07-08T13:01:20;101492.87;;;29.85;24.10
77005;BME280;67261;53.132;18.006;2023-07-08T13:03:56;101488.45;;;29.86;24.62
77005;BME280;67261;53.132;18.006;2023-07-08T13:06:30;101490.34;;;29.88;24.36
77005;BME280;67261;53.132;18.006;2023-07-08T13:11:49;101486.07;;;29.78;24.02
77005;BME280;67261;53.132;18.006;2023-07-08T13:14:29;101490.20;;;29.74;24.30
77005;BME280;67261;53.132;18.006;2023-07-08T13:16:58;101486.88;;;29.69;24.47
77005;BME280;67261;53.132;18.006;2023-07-08T13:19:29;101485.17;;;29.68;24.63
77005;BME280;67261;53.132;18.006;2023-07-08T13:21:57;101490.65;;;29.70;24.98
77005;BME280;67261;53.132;18.006;2023-07-08T13:24:31;101487.63;;;29.73;25.09
77005;BME280;67261;53.132;18.006;2023-07-08T13:27:04;101484.27;;;29.74;25.05
77005;BME280;67261;53.132;18.006;2023-07-08T13:29:36;101480.39;;;29.74;25.07
77005;BME280;67261;53.132;18.006;2023-07-08T13:32:09;101475.90;;;29.72;25.29
77005;BME280;67261;53.132;18.006;2023-07-08T13:34:39;101475.07;;;29.72;25.45
77005;BME280;67261;53.132;18.006;2023-07-08T13:37:12;101469.11;;;29.71;25.67
77005;BME280;67261;53.132;18.006;2023-07-08T13:39:44;101469.44;;;29.65;25.65
77005;BME280;67261;53.132;18.006;2023-07-08T13:42:13;101470.81;;;29.60;25.52
77005;BME280;67261;53.132;18.006;2023-07-08T13:44:44;101471.02;;;29.56;25.56
77005;BME280;67261;53.132;18.006;2023-07-08T13:47:21;101474.35;;;29.51;25.65
77005;BME280;67261;53.132;18.006;2023-07-08T13:49:54;101477.36;;;29.45;25.74
77005;BME280;67261;53.132;18.006;2023-07-08T13:52:23;101475.14;;;29.40;25.80
77005;BME280;67261;53.132;18.006;2023-07-08T13:54:57;101478.15;;;29.35;25.87
77005;BME280;67261;53.132;18.006;2023-07-08T13:57:34;101480.98;;;29.33;26.02
77005;BME280;67261;53.132;18.006;2023-07-08T14:00:03;101478.80;;;29.33;26.25
77005;BME280;67261;53.132;18.006;2023-07-08T14:02:44;101476.35;;;29.33;26.17
77005;BME280;67261;53.132;18.006;2023-07-08T14:05:13;101473.17;;;29.33;26.17